sensor_id;sensor_type;location;lat;lon;timestamp;temperature;humidity
58809;DHT22;44579;51.672;7.834;2022-12-07T00:01:22;5.20;93.00
58809;DHT22;44579;51.672;7.834;2022-12-07T00:03:52;5.20;93.00
58809;DHT22;44579;51.672;7.834;2022-12-07T00:06:20;5.20;93.00
58809;DHT22;44579;51.672;7.834;2022-12-07T00:08:47;5.20;93.00
58809;DHT22;44579;51.672;7.834;2022-12-07T00:11:20;5.20;93.00
58809;DHT22;44579;51.672;7.834;2022-12-07T00:13:52;5.20;93.10
58809;DHT22;44579;51.672;7.834;2022-12-07T00:16:20;5.20;93.10
58809;DHT22;44579;51.672;7.834;2022-12-07T00:18:47;5.20;93.10
58809;DHT22;44579;51.672;7.834;2022-12-07T00:21:18;5.20;93.10
58809;DHT22;44579;51.672;7.834;2022-12-07T00:23:46;5.20;93.00
58809;DHT22;44579;51.672;7.834;2022-12-07T00:26:25;5.20;93.00
58809;DHT22;44579;51.672;7.834;2022-12-07T00:28:58;5.20;93.00
58809;DHT22;44579;51.672;7.834;2022-12-07T00:31:34;5.20;93.00
58809;DHT22;44579;51.672;7.834;2022-12-07T00:34:12;5.20;93.00
58809;DHT22;44579;51.672;7.834;2022-12-07T00:36:39;5.20;93.00
58809;DHT22;44579;51.672;7.834;2022-12-07T00:39:06;5.20;93.00
58809;DHT22;44579;51.672;7.834;2022-12-07T00:41:32;5.20;93.00
58809;DHT22;44579;51.672;7.834;2022-12-07T00:43:59;5.20;93.00
58809;DHT22;44579;51.672;7.834;2022-12-07T00:46:26;5.20;93.00
58809;DHT22;44579;51.672;7.834;2022-12-07T00:48:54;5.20;93.00
58809;DHT22;44579;51.672;7.834;2022-12-07T00:51:23;5.20;93.00
58809;DHT22;44579;51.672;7.834;2022-12-07T00:53:51;5.20;93.00
58809;DHT22;44579;51.672;7.834;2022-12-07T00:56:23;5.20;93.00
58809;DHT22;44579;51.672;7.834;2022-12-07T00:58:55;5.30;93.00
58809;DHT22;44579;51.672;7.834;2022-12-07T01:01:23;5.20;93.00
58809;DHT22;44579;51.672;7.834;2022-12-07T01:03:50;5.30;93.00
58809;DHT22;44579;51.672;7.834;2022-12-07T01:06:18;5.30;93.00
58809;DHT22;44579;51.672;7.834;2022-12-07T01:08:45;5.30;93.00
58809;DHT22;44579;51.672;7.834;2022-12-07T01:11:18;5.30;93.00
58809;DHT22;44579;51.672;7.834;2022-12-07T01:13:46;5.30;93.00
58809;DHT22;44579;51.672;7.834;2022-12-07T01:16:15;5.30;93.00
58809;DHT22;44579;51.672;7.834;2022-12-07T01:18:42;5.30;93.00
58809;DHT22;44579;51.672;7.834;2022-12-07T01:21:19;5.30;93.00
58809;DHT22;44579;51.672;7.834;2022-12-07T01:23:48;5.30;93.00
58809;DHT22;44579;51.672;7.834;2022-12-07T01:26:19;5.30;93.00
58809;DHT22;44579;51.672;7.834;2022-12-07T01:28:46;5.30;93.00
58809;DHT22;44579;51.672;7.834;2022-12-07T01:31:15;5.30;93.00
58809;DHT22;44579;51.672;7.834;2022-12-07T01:33:44;5.30;93.00
58809;DHT22;44579;51.672;7.834;2022-12-07T01:36:17;5.30;93.00
58809;DHT22;44579;51.672;7.834;2022-12-07T01:38:46;5.30;93.00
58809;DHT22;44579;51.672;7.834;2022-12-07T01:41:14;5.30;93.00
58809;DHT22;44579;51.672;7.834;2022-12-07T01:44:07;5.30;93.00
58809;DHT22;44579;51.672;7.834;2022-12-07T01:46:35;5.30;93.00
58809;DHT22;44579;51.672;7.834;2022-12-07T01:49:04;5.30;93.00
58809;DHT22;44579;51.672;7.834;2022-12-07T01:51:33;5.30;93.00
58809;DHT22;44579;51.672;7.834;2022-12-07T01:54:01;5.30;93.00
58809;DHT22;44579;51.672;7.834;2022-12-07T01:56:29;5.30;93.00
58809;DHT22;44579;51.672;7.834;2022-12-07T01:58:56;5.30;93.00
58809;DHT22;44579;51.672;7.834;2022-12-07T02:01:24;5.30;93.00
58809;DHT22;44579;51.672;7.834;2022-12-07T02:03:51;5.30;93.00
58809;DHT22;44579;51.672;7.834;2022-12-07T02:06:19;5.30;93.00
58809;DHT22;44579;51.672;7.834;2022-12-07T02:08:47;5.30;93.00
58809;DHT22;44579;51.672;7.834;2022-12-07T02:11:14;5.30;93.10
58809;DHT22;44579;51.672;7.834;2022-12-07T02:13:43;5.30;93.00
58809;DHT22;44579;51.672;7.834;2022-12-07T02:19:23;5.30;93.00
58809;DHT22;44579;51.672;7.834;2022-12-07T02:22:22;5.30;93.00
58809;DHT22;44579;51.672;7.834;2022-12-07T02:25:02;5.30;93.00
58809;DHT22;44579;51.672;7.834;2022-12-07T02:27:56;5.30;93.00
58809;DHT22;44579;51.672;7.834;2022-12-07T02:30:34;5.30;93.00
58809;DHT22;44579;51.672;7.834;2022-12-07T02:33:29;5.30;93.00
58809;DHT22;44579;51.672;7.834;2022-12-07T02:36:06;5.30;93.00
58809;DHT22;44579;51.672;7.834;2022-12-07T02:38:43;5.30;93.00
58809;DHT22;44579;51.672;7.834;2022-12-07T02:41:20;5.30;93.00
58809;DHT22;44579;51.672;7.834;2022-12-07T02:43:54;5.30;93.00
58809;DHT22;44579;51.672;7.834;2022-12-07T02:46:35;5.30;93.00
58809;DHT22;44579;51.672;7.834;2022-12-07T02:49:04;5.30;93.00
58809;DHT22;44579;51.672;7.834;2022-12-07T02:51:32;5.30;93.00
58809;DHT22;44579;51.672;7.834;2022-12-07T02:54:00;5.30;93.00
58809;DHT22;44579;51.672;7.834;2022-12-07T02:59:15;5.20;92.90
58809;DHT22;44579;51.672;7.834;2022-12-07T03:10:07;4.90;92.80
58809;DHT22;44579;51.672;7.834;2022-12-07T03:13:03;4.90;92.80
58809;DHT22;44579;51.672;7.834;2022-12-07T03:18:08;4.80;92.80
58809;DHT22;44579;51.672;7.834;2022-12-07T03:20:37;4.80;92.80
58809;DHT22;44579;51.672;7.834;2022-12-07T03:23:07;4.80;92.80
58809;DHT22;44579;51.672;7.834;2022-12-07T03:25:41;4.80;92.80
58809;DHT22;44579;51.672;7.834;2022-12-07T03:28:11;4.80;92.80
58809;DHT22;44579;51.672;7.834;2022-12-07T03:30:46;4.70;92.70
58809;DHT22;44579;51.672;7.834;2022-12-07T03:33:23;4.70;93.10
58809;DHT22;44579;51.672;7.834;2022-12-07T03:36:25;4.60;92.70
58809;DHT22;44579;51.672;7.834;2022-12-07T03:39:27;4.60;92.60
58809;DHT22;44579;51.672;7.834;2022-12-07T03:41:56;4.60;92.60
58809;DHT22;44579;51.672;7.834;2022-12-07T03:44:24;4.50;92.60
58809;DHT22;44579;51.672;7.834;2022-12-07T03:52:24;4.40;92.60
58809;DHT22;44579;51.672;7.834;2022-12-07T03:57:33;4.30;92.60
58809;DHT22;44579;51.672;7.834;2022-12-07T04:00:01;4.30;92.60
58809;DHT22;44579;51.672;7.834;2022-12-07T04:02:37;4.30;92.60
58809;DHT22;44579;51.672;7.834;2022-12-07T04:05:06;4.30;92.60
58809;DHT22;44579;51.672;7.834;2022-12-07T04:07:33;4.30;92.60
58809;DHT22;44579;51.672;7.834;2022-12-07T04:10:00;4.30;92.60
58809;DHT22;44579;51.672;7.834;2022-12-07T04:12:28;4.30;92.60
58809;DHT22;44579;51.672;7.834;2022-12-07T04:14:54;4.30;92.50
58809;DHT22;44579;51.672;7.834;2022-12-07T04:17:21;4.30;92.50
58809;DHT22;44579;51.672;7.834;2022-12-07T04:19:48;4.30;92.40
58809;DHT22;44579;51.672;7.834;2022-12-07T04:22:15;4.30;92.40
58809;DHT22;44579;51.672;7.834;2022-12-07T04:24:42;4.20;92.40
58809;DHT22;44579;51.672;7.834;2022-12-07T04:27:09;4.20;92.40
58809;DHT22;44579;51.672;7.834;2022-12-07T04:29:36;4.20;92.50
58809;DHT22;44579;51.672;7.834;2022-12-07T04:32:03;4.20;92.50
58809;DHT22;44579;51.672;7.834;2022-12-07T04:34:29;4.10;92.50
58809;DHT22;44579;51.672;7.834;2022-12-07T04:36:56;4.10;92.50
58809;DHT22;44579;51.672;7.834;2022-12-07T04:39:28;4.10;92.50
58809;DHT22;44579;51.672;7.834;2022-12-07T04:41:57;4.10;92.50
58809;DHT22;44579;51.672;7.834;2022-12-07T04:44:25;4.00;92.40
58809;DHT22;44579;51.672;7.834;2022-12-07T04:46:53;4.00;92.40
58809;DHT22;44579;51.672;7.834;2022-12-07T04:49:21;4.00;92.50
58809;DHT22;44579;51.672;7.834;2022-12-07T04:51:48;4.00;92.50
58809;DHT22;44579;51.672;7.834;2022-12-07T04:54:15;4.00;92.50
58809;DHT22;44579;51.672;7.834;2022-12-07T04:56:43;3.90;92.40
58809;DHT22;44579;51.672;7.834;2022-12-07T04:59:14;3.90;92.40
58809;DHT22;44579;51.672;7.834;2022-12-07T05:01:42;3.90;92.40
58809;DHT22;44579;51.672;7.834;2022-12-07T05:04:09;3.90;92.40
58809;DHT22;44579;51.672;7.834;2022-12-07T05:06:36;3.90;92.40
58809;DHT22;44579;51.672;7.834;2022-12-07T05:09:04;3.80;92.40
58809;DHT22;44579;51.672;7.834;2022-12-07T05:11:31;3.80;92.40
58809;DHT22;44579;51.672;7.834;2022-12-07T05:14:10;3.80;92.40
58809;DHT22;44579;51.672;7.834;2022-12-07T05:16:38;3.80;92.40
58809;DHT22;44579;51.672;7.834;2022-12-07T05:19:07;3.80;92.40
58809;DHT22;44579;51.672;7.834;2022-12-07T05:21:35;3.80;92.40
58809;DHT22;44579;51.672;7.834;2022-12-07T05:24:02;3.80;92.80
58809;DHT22;44579;51.672;7.834;2022-12-07T05:26:29;3.90;92.40
58809;DHT22;44579;51.672;7.834;2022-12-07T05:28:57;3.90;92.40
58809;DHT22;44579;51.672;7.834;2022-12-07T05:31:24;3.90;92.40
58809;DHT22;44579;51.672;7.834;2022-12-07T05:33:52;4.00;92.50
58809;DHT22;44579;51.672;7.834;2022-12-07T05:36:19;4.00;92.50
58809;DHT22;44579;51.672;7.834;2022-12-07T05:38:46;4.00;92.40
58809;DHT22;44579;51.672;7.834;2022-12-07T05:41:16;4.00;92.40
58809;DHT22;44579;51.672;7.834;2022-12-07T05:44:02;4.00;92.40
58809;DHT22;44579;51.672;7.834;2022-12-07T05:46:29;4.00;92.40
58809;DHT22;44579;51.672;7.834;2022-12-07T05:48:56;4.00;92.40
58809;DHT22;44579;51.672;7.834;2022-12-07T05:51:23;4.00;92.40
58809;DHT22;44579;51.672;7.834;2022-12-07T05:53:50;4.00;92.40
58809;DHT22;44579;51.672;7.834;2022-12-07T05:56:17;4.00;92.40
58809;DHT22;44579;51.672;7.834;2022-12-07T05:58:44;4.10;92.40
58809;DHT22;44579;51.672;7.834;2022-12-07T06:01:29;4.00;92.40
58809;DHT22;44579;51.672;7.834;2022-12-07T06:03:56;4.10;92.50
58809;DHT22;44579;51.672;7.834;2022-12-07T06:06:23;4.10;92.50
58809;DHT22;44579;51.672;7.834;2022-12-07T06:08:50;4.10;92.50
58809;DHT22;44579;51.672;7.834;2022-12-07T06:11:17;4.10;92.40
58809;DHT22;44579;51.672;7.834;2022-12-07T06:14:02;4.20;92.40
58809;DHT22;44579;51.672;7.834;2022-12-07T06:16:29;4.20;92.40
58809;DHT22;44579;51.672;7.834;2022-12-07T06:18:56;4.20;92.40
58809;DHT22;44579;51.672;7.834;2022-12-07T06:21:23;4.20;92.40
58809;DHT22;44579;51.672;7.834;2022-12-07T06:23:52;4.20;92.40
58809;DHT22;44579;51.672;7.834;2022-12-07T06:26:19;4.20;92.40
58809;DHT22;44579;51.672;7.834;2022-12-07T06:28:47;4.10;92.40
58809;DHT22;44579;51.672;7.834;2022-12-07T06:31:13;4.20;92.50
58809;DHT22;44579;51.672;7.834;2022-12-07T06:33:41;4.20;92.50
58809;DHT22;44579;51.672;7.834;2022-12-07T06:36:09;4.20;92.50
58809;DHT22;44579;51.672;7.834;2022-12-07T06:38:36;4.20;92.50
58809;DHT22;44579;51.672;7.834;2022-12-07T06:41:03;4.20;92.50
58809;DHT22;44579;51.672;7.834;2022-12-07T06:43:30;4.20;92.50
58809;DHT22;44579;51.672;7.834;2022-12-07T06:45:56;4.20;92.40
58809;DHT22;44579;51.672;7.834;2022-12-07T06:48:23;4.20;92.40
58809;DHT22;44579;51.672;7.834;2022-12-07T06:50:50;4.20;92.40
58809;DHT22;44579;51.672;7.834;2022-12-07T06:53:21;4.20;92.50
58809;DHT22;44579;51.672;7.834;2022-12-07T06:55:48;4.10;92.50
58809;DHT22;44579;51.672;7.834;2022-12-07T06:58:16;4.20;92.50
58809;DHT22;44579;51.672;7.834;2022-12-07T07:00:43;4.10;92.50
58809;DHT22;44579;51.672;7.834;2022-12-07T07:03:10;4.10;92.40
58809;DHT22;44579;51.672;7.834;2022-12-07T07:05:37;4.00;92.50
58809;DHT22;44579;51.672;7.834;2022-12-07T07:08:04;4.00;92.40
58809;DHT22;44579;51.672;7.834;2022-12-07T07:10:48;4.00;92.80
58809;DHT22;44579;51.672;7.834;2022-12-07T07:13:15;3.90;92.40
58809;DHT22;44579;51.672;7.834;2022-12-07T07:15:42;3.90;92.50
58809;DHT22;44579;51.672;7.834;2022-12-07T07:18:09;3.90;92.50
58809;DHT22;44579;51.672;7.834;2022-12-07T07:20:37;3.90;92.40
58809;DHT22;44579;51.672;7.834;2022-12-07T07:23:04;3.90;92.40
58809;DHT22;44579;51.672;7.834;2022-12-07T07:25:31;3.90;92.40
58809;DHT22;44579;51.672;7.834;2022-12-07T07:27:58;3.90;92.40
58809;DHT22;44579;51.672;7.834;2022-12-07T07:30:25;3.90;92.50
58809;DHT22;44579;51.672;7.834;2022-12-07T07:32:59;3.90;92.50
58809;DHT22;44579;51.672;7.834;2022-12-07T07:35:28;3.90;92.50
58809;DHT22;44579;51.672;7.834;2022-12-07T07:37:55;3.90;92.50
58809;DHT22;44579;51.672;7.834;2022-12-07T07:40:23;3.90;92.40
58809;DHT22;44579;51.672;7.834;2022-12-07T07:42:51;3.90;92.40
58809;DHT22;44579;51.672;7.834;2022-12-07T07:45:23;3.90;92.40
58809;DHT22;44579;51.672;7.834;2022-12-07T07:47:51;3.90;92.40
58809;DHT22;44579;51.672;7.834;2022-12-07T07:50:18;3.90;92.30
58809;DHT22;44579;51.672;7.834;2022-12-07T07:52:45;3.80;92.30
58809;DHT22;44579;51.672;7.834;2022-12-07T07:55:12;3.80;92.30
58809;DHT22;44579;51.672;7.834;2022-12-07T07:57:40;3.80;92.30
58809;DHT22;44579;51.672;7.834;2022-12-07T08:00:11;3.70;92.30
58809;DHT22;44579;51.672;7.834;2022-12-07T08:02:39;3.70;92.40
58809;DHT22;44579;51.672;7.834;2022-12-07T08:05:07;3.70;92.40
58809;DHT22;44579;51.672;7.834;2022-12-07T08:07:34;3.60;92.40
58809;DHT22;44579;51.672;7.834;2022-12-07T08:10:01;3.70;92.40
58809;DHT22;44579;51.672;7.834;2022-12-07T08:12:29;3.70;92.40
58809;DHT22;44579;51.672;7.834;2022-12-07T08:14:56;3.70;92.40
58809;DHT22;44579;51.672;7.834;2022-12-07T08:17:23;3.70;92.40
58809;DHT22;44579;51.672;7.834;2022-12-07T08:19:50;3.70;92.40
58809;DHT22;44579;51.672;7.834;2022-12-07T08:22:17;3.70;92.40
58809;DHT22;44579;51.672;7.834;2022-12-07T08:24:43;3.80;92.50
58809;DHT22;44579;51.672;7.834;2022-12-07T08:27:10;3.90;92.40
58809;DHT22;44579;51.672;7.834;2022-12-07T08:29:37;3.90;92.40
58809;DHT22;44579;51.672;7.834;2022-12-07T08:32:04;3.90;92.40
58809;DHT22;44579;51.672;7.834;2022-12-07T08:34:35;4.00;92.40
58809;DHT22;44579;51.672;7.834;2022-12-07T08:37:03;4.00;92.40
58809;DHT22;44579;51.672;7.834;2022-12-07T08:39:30;4.10;92.40
58809;DHT22;44579;51.672;7.834;2022-12-07T08:41:58;4.10;92.50
58809;DHT22;44579;51.672;7.834;2022-12-07T08:44:25;4.20;92.60
58809;DHT22;44579;51.672;7.834;2022-12-07T08:47:02;4.30;92.60
58809;DHT22;44579;51.672;7.834;2022-12-07T08:49:34;4.30;92.60
58809;DHT22;44579;51.672;7.834;2022-12-07T08:52:05;4.30;92.50
58809;DHT22;44579;51.672;7.834;2022-12-07T08:54:35;4.40;92.60
58809;DHT22;44579;51.672;7.834;2022-12-07T08:57:05;4.30;92.60
58809;DHT22;44579;51.672;7.834;2022-12-07T08:59:34;4.40;92.50
58809;DHT22;44579;51.672;7.834;2022-12-07T09:02:03;4.40;92.50
58809;DHT22;44579;51.672;7.834;2022-12-07T09:04:30;4.30;92.40
58809;DHT22;44579;51.672;7.834;2022-12-07T09:06:57;4.30;92.40
58809;DHT22;44579;51.672;7.834;2022-12-07T09:09:24;4.20;92.50
58809;DHT22;44579;51.672;7.834;2022-12-07T09:11:51;4.20;92.60
58809;DHT22;44579;51.672;7.834;2022-12-07T09:14:18;4.20;92.60
58809;DHT22;44579;51.672;7.834;2022-12-07T09:16:45;4.20;92.60
58809;DHT22;44579;51.672;7.834;2022-12-07T09:19:12;4.20;92.60
58809;DHT22;44579;51.672;7.834;2022-12-07T09:21:39;4.30;92.60
58809;DHT22;44579;51.672;7.834;2022-12-07T09:24:06;4.30;92.70
58809;DHT22;44579;51.672;7.834;2022-12-07T09:26:33;4.30;92.60
58809;DHT22;44579;51.672;7.834;2022-12-07T09:29:02;4.30;92.60
58809;DHT22;44579;51.672;7.834;2022-12-07T09:31:29;4.40;92.60
58809;DHT22;44579;51.672;7.834;2022-12-07T09:33:58;4.40;92.60
58809;DHT22;44579;51.672;7.834;2022-12-07T09:36:26;4.50;92.70
58809;DHT22;44579;51.672;7.834;2022-12-07T09:38:53;4.60;92.70
58809;DHT22;44579;51.672;7.834;2022-12-07T09:41:21;4.60;92.70
58809;DHT22;44579;51.672;7.834;2022-12-07T09:43:49;4.70;92.80
58809;DHT22;44579;51.672;7.834;2022-12-07T09:46:17;4.70;92.70
58809;DHT22;44579;51.672;7.834;2022-12-07T09:48:47;4.80;92.80
58809;DHT22;44579;51.672;7.834;2022-12-07T09:51:18;4.90;92.80
58809;DHT22;44579;51.672;7.834;2022-12-07T09:53:55;5.00;92.90
58809;DHT22;44579;51.672;7.834;2022-12-07T09:56:23;5.10;92.90
58809;DHT22;44579;51.672;7.834;2022-12-07T09:59:00;5.10;92.90
58809;DHT22;44579;51.672;7.834;2022-12-07T10:01:31;5.20;92.90
58809;DHT22;44579;51.672;7.834;2022-12-07T10:04:12;5.20;93.00
58809;DHT22;44579;51.672;7.834;2022-12-07T10:06:43;5.20;93.00
58809;DHT22;44579;51.672;7.834;2022-12-07T10:09:15;5.20;93.00
58809;DHT22;44579;51.672;7.834;2022-12-07T10:12:21;5.20;93.00
58809;DHT22;44579;51.672;7.834;2022-12-07T10:15:03;5.20;93.00
58809;DHT22;44579;51.672;7.834;2022-12-07T10:17:39;5.20;93.00
58809;DHT22;44579;51.672;7.834;2022-12-07T10:20:23;5.20;93.00
58809;DHT22;44579;51.672;7.834;2022-12-07T10:23:05;5.10;93.00
58809;DHT22;44579;51.672;7.834;2022-12-07T10:25:34;5.10;93.00
58809;DHT22;44579;51.672;7.834;2022-12-07T10:28:14;5.10;93.10
58809;DHT22;44579;51.672;7.834;2022-12-07T10:30:59;5.10;93.10
58809;DHT22;44579;51.672;7.834;2022-12-07T10:33:35;5.10;93.20
58809;DHT22;44579;51.672;7.834;2022-12-07T10:36:22;5.10;93.20
58809;DHT22;44579;51.672;7.834;2022-12-07T10:41:28;5.20;93.30
58809;DHT22;44579;51.672;7.834;2022-12-07T10:43:56;5.30;93.30
58809;DHT22;44579;51.672;7.834;2022-12-07T10:49:13;5.40;93.30
58809;DHT22;44579;51.672;7.834;2022-12-07T10:51:53;5.50;93.30
58809;DHT22;44579;51.672;7.834;2022-12-07T10:54:26;5.50;93.30
58809;DHT22;44579;51.672;7.834;2022-12-07T10:57:13;5.60;93.30
58809;DHT22;44579;51.672;7.834;2022-12-07T11:00:06;5.70;93.40
58809;DHT22;44579;51.672;7.834;2022-12-07T11:02:38;5.70;93.40
58809;DHT22;44579;51.672;7.834;2022-12-07T11:08:18;5.80;93.40
58809;DHT22;44579;51.672;7.834;2022-12-07T11:11:06;5.80;93.40
58809;DHT22;44579;51.672;7.834;2022-12-07T11:16:40;5.90;93.50
58809;DHT22;44579;51.672;7.834;2022-12-07T11:19:19;6.00;93.60
58809;DHT22;44579;51.672;7.834;2022-12-07T11:22:00;6.00;93.60
58809;DHT22;44579;51.672;7.834;2022-12-07T11:27:37;6.00;93.60
58809;DHT22;44579;51.672;7.834;2022-12-07T11:30:14;5.90;93.50
58809;DHT22;44579;51.672;7.834;2022-12-07T11:38:16;6.00;93.50
58809;DHT22;44579;51.672;7.834;2022-12-07T11:40:54;6.00;93.50
58809;DHT22;44579;51.672;7.834;2022-12-07T11:43:32;6.00;93.50
58809;DHT22;44579;51.672;7.834;2022-12-07T11:46:08;6.10;93.50
58809;DHT22;44579;51.672;7.834;2022-12-07T11:48:47;6.10;93.60
58809;DHT22;44579;51.672;7.834;2022-12-07T11:51:20;6.10;93.50
58809;DHT22;44579;51.672;7.834;2022-12-07T11:53:59;6.10;93.50
58809;DHT22;44579;51.672;7.834;2022-12-07T11:56:29;6.10;93.50
58809;DHT22;44579;51.672;7.834;2022-12-07T12:04:29;6.10;93.50
58809;DHT22;44579;51.672;7.834;2022-12-07T12:07:00;6.10;93.50
58809;DHT22;44579;51.672;7.834;2022-12-07T12:10:06;6.10;93.50
58809;DHT22;44579;51.672;7.834;2022-12-07T12:21:48;6.00;93.40
58809;DHT22;44579;51.672;7.834;2022-12-07T12:24:27;6.10;93.50
58809;DHT22;44579;51.672;7.834;2022-12-07T12:27:05;6.10;93.50
58809;DHT22;44579;51.672;7.834;2022-12-07T12:29:39;6.00;93.40
58809;DHT22;44579;51.672;7.834;2022-12-07T12:32:17;5.90;93.30
58809;DHT22;44579;51.672;7.834;2022-12-07T12:42:53;5.80;93.30
58809;DHT22;44579;51.672;7.834;2022-12-07T12:48:02;5.70;93.20
58809;DHT22;44579;51.672;7.834;2022-12-07T12:50:38;5.70;93.20
58809;DHT22;44579;51.672;7.834;2022-12-07T12:53:25;5.70;93.20
58809;DHT22;44579;51.672;7.834;2022-12-07T12:56:23;5.60;93.10
58809;DHT22;44579;51.672;7.834;2022-12-07T12:59:26;5.60;93.10
58809;DHT22;44579;51.672;7.834;2022-12-07T13:26:20;5.90;93.20
58809;DHT22;44579;51.672;7.834;2022-12-07T13:33:58;6.00;93.20
58809;DHT22;44579;51.672;7.834;2022-12-07T13:36:33;6.00;93.20
58809;DHT22;44579;51.672;7.834;2022-12-07T13:39:24;6.00;93.20
58809;DHT22;44579;51.672;7.834;2022-12-07T13:41:53;6.10;93.30
58809;DHT22;44579;51.672;7.834;2022-12-07T13:44:22;6.00;93.30
58809;DHT22;44579;51.672;7.834;2022-12-07T13:49:53;6.00;93.20
58809;DHT22;44579;51.672;7.834;2022-12-07T13:52:25;5.90;93.20
58809;DHT22;44579;51.672;7.834;2022-12-07T13:55:14;5.90;93.20
58809;DHT22;44579;51.672;7.834;2022-12-07T13:57:50;5.90;93.20
58809;DHT22;44579;51.672;7.834;2022-12-07T14:00:26;5.80;93.20
58809;DHT22;44579;51.672;7.834;2022-12-07T14:03:04;5.80;93.20
58809;DHT22;44579;51.672;7.834;2022-12-07T14:05:34;5.80;93.20
58809;DHT22;44579;51.672;7.834;2022-12-07T14:08:03;5.80;93.20
58809;DHT22;44579;51.672;7.834;2022-12-07T14:10:34;5.80;93.20
58809;DHT22;44579;51.672;7.834;2022-12-07T14:13:17;5.80;93.20
58809;DHT22;44579;51.672;7.834;2022-12-07T14:15:51;5.80;93.10
58809;DHT22;44579;51.672;7.834;2022-12-07T14:18:38;5.70;93.00
58809;DHT22;44579;51.672;7.834;2022-12-07T14:21:24;5.70;93.00
58809;DHT22;44579;51.672;7.834;2022-12-07T14:26:46;5.60;93.00
58809;DHT22;44579;51.672;7.834;2022-12-07T14:31:53;5.60;93.10
58809;DHT22;44579;51.672;7.834;2022-12-07T14:34:20;5.50;93.00
58809;DHT22;44579;51.672;7.834;2022-12-07T14:36:48;5.50;92.90
58809;DHT22;44579;51.672;7.834;2022-12-07T14:39:15;5.40;93.00
58809;DHT22;44579;51.672;7.834;2022-12-07T14:41:42;5.50;93.00
58809;DHT22;44579;51.672;7.834;2022-12-07T14:44:22;5.50;93.00
58809;DHT22;44579;51.672;7.834;2022-12-07T14:46:59;5.40;93.00
58809;DHT22;44579;51.672;7.834;2022-12-07T14:49:46;5.40;93.00
58809;DHT22;44579;51.672;7.834;2022-12-07T14:52:27;5.40;93.00
58809;DHT22;44579;51.672;7.834;2022-12-07T14:55:22;5.40;93.00
58809;DHT22;44579;51.672;7.834;2022-12-07T14:57:49;5.40;93.00
58809;DHT22;44579;51.672;7.834;2022-12-07T15:00:17;5.30;93.00
58809;DHT22;44579;51.672;7.834;2022-12-07T15:02:47;5.30;93.00
58809;DHT22;44579;51.672;7.834;2022-12-07T15:05:15;5.40;93.00
58809;DHT22;44579;51.672;7.834;2022-12-07T15:07:44;5.40;93.00
58809;DHT22;44579;51.672;7.834;2022-12-07T15:10:19;5.40;93.00
58809;DHT22;44579;51.672;7.834;2022-12-07T15:12:50;5.40;93.00
58809;DHT22;44579;51.672;7.834;2022-12-07T15:15:17;5.40;92.90
58809;DHT22;44579;51.672;7.834;2022-12-07T15:17:44;5.30;93.00
58809;DHT22;44579;51.672;7.834;2022-12-07T15:20:15;5.30;92.90
58809;DHT22;44579;51.672;7.834;2022-12-07T15:22:43;5.30;92.90
58809;DHT22;44579;51.672;7.834;2022-12-07T15:25:13;5.20;92.90
58809;DHT22;44579;51.672;7.834;2022-12-07T15:27:40;5.20;92.90
58809;DHT22;44579;51.672;7.834;2022-12-07T15:30:07;5.20;92.90
58809;DHT22;44579;51.672;7.834;2022-12-07T15:32:34;5.20;92.90
58809;DHT22;44579;51.672;7.834;2022-12-07T15:35:01;5.10;92.90
58809;DHT22;44579;51.672;7.834;2022-12-07T15:37:28;5.10;92.90
58809;DHT22;44579;51.672;7.834;2022-12-07T15:39:55;5.10;92.80
58809;DHT22;44579;51.672;7.834;2022-12-07T15:42:22;5.00;92.80
58809;DHT22;44579;51.672;7.834;2022-12-07T15:44:48;5.00;92.80
58809;DHT22;44579;51.672;7.834;2022-12-07T15:47:40;5.00;92.80
58809;DHT22;44579;51.672;7.834;2022-12-07T15:50:26;5.00;92.80
58809;DHT22;44579;51.672;7.834;2022-12-07T15:52:53;5.00;92.80
58809;DHT22;44579;51.672;7.834;2022-12-07T15:55:20;4.90;92.80
58809;DHT22;44579;51.672;7.834;2022-12-07T15:57:47;5.00;92.80
58809;DHT22;44579;51.672;7.834;2022-12-07T16:00:16;5.00;92.80
58809;DHT22;44579;51.672;7.834;2022-12-07T16:02:43;4.90;92.70
58809;DHT22;44579;51.672;7.834;2022-12-07T16:05:09;4.90;92.70
58809;DHT22;44579;51.672;7.834;2022-12-07T16:07:36;4.90;92.70
58809;DHT22;44579;51.672;7.834;2022-12-07T16:10:04;4.90;92.70
58809;DHT22;44579;51.672;7.834;2022-12-07T16:12:30;4.90;92.70
58809;DHT22;44579;51.672;7.834;2022-12-07T16:14:57;4.90;92.70
58809;DHT22;44579;51.672;7.834;2022-12-07T16:17:24;4.80;92.60
58809;DHT22;44579;51.672;7.834;2022-12-07T16:19:51;4.80;92.60
58809;DHT22;44579;51.672;7.834;2022-12-07T16:22:18;4.80;92.70
58809;DHT22;44579;51.672;7.834;2022-12-07T16:24:45;4.80;92.70
58809;DHT22;44579;51.672;7.834;2022-12-07T16:27:12;4.80;92.70
58809;DHT22;44579;51.672;7.834;2022-12-07T16:29:39;4.70;92.60
58809;DHT22;44579;51.672;7.834;2022-12-07T16:32:06;4.70;92.60
58809;DHT22;44579;51.672;7.834;2022-12-07T16:34:33;4.70;92.60
58809;DHT22;44579;51.672;7.834;2022-12-07T16:37:00;4.70;92.60
58809;DHT22;44579;51.672;7.834;2022-12-07T16:39:31;4.70;92.60
58809;DHT22;44579;51.672;7.834;2022-12-07T16:41:58;4.70;92.60
58809;DHT22;44579;51.672;7.834;2022-12-07T16:44:25;4.70;92.60
58809;DHT22;44579;51.672;7.834;2022-12-07T16:46:52;4.70;92.70
58809;DHT22;44579;51.672;7.834;2022-12-07T16:49:22;4.70;92.70
58809;DHT22;44579;51.672;7.834;2022-12-07T16:51:51;4.70;92.70
58809;DHT22;44579;51.672;7.834;2022-12-07T16:54:38;4.70;92.70
58809;DHT22;44579;51.672;7.834;2022-12-07T16:57:06;4.70;92.70
58809;DHT22;44579;51.672;7.834;2022-12-07T16:59:33;4.70;92.70
58809;DHT22;44579;51.672;7.834;2022-12-07T17:02:02;4.70;92.60
58809;DHT22;44579;51.672;7.834;2022-12-07T17:04:33;4.70;92.60
58809;DHT22;44579;51.672;7.834;2022-12-07T17:07:00;4.70;92.60
58809;DHT22;44579;51.672;7.834;2022-12-07T17:09:27;4.70;92.60
58809;DHT22;44579;51.672;7.834;2022-12-07T17:11:55;4.70;92.60
58809;DHT22;44579;51.672;7.834;2022-12-07T17:14:22;4.70;92.70
58809;DHT22;44579;51.672;7.834;2022-12-07T17:17:08;4.80;92.70
58809;DHT22;44579;51.672;7.834;2022-12-07T17:19:34;4.80;92.70
58809;DHT22;44579;51.672;7.834;2022-12-07T17:22:01;4.80;92.70
58809;DHT22;44579;51.672;7.834;2022-12-07T17:24:28;4.80;92.70
58809;DHT22;44579;51.672;7.834;2022-12-07T17:26:55;4.80;92.70
58809;DHT22;44579;51.672;7.834;2022-12-07T17:29:22;4.80;92.70
58809;DHT22;44579;51.672;7.834;2022-12-07T17:31:49;4.90;92.70
58809;DHT22;44579;51.672;7.834;2022-12-07T17:34:18;4.90;92.70
58809;DHT22;44579;51.672;7.834;2022-12-07T17:36:45;4.90;92.70
58809;DHT22;44579;51.672;7.834;2022-12-07T17:39:15;4.90;92.70
58809;DHT22;44579;51.672;7.834;2022-12-07T17:41:43;4.90;92.70
58809;DHT22;44579;51.672;7.834;2022-12-07T17:44:28;4.90;92.70
58809;DHT22;44579;51.672;7.834;2022-12-07T17:46:55;4.90;92.70
58809;DHT22;44579;51.672;7.834;2022-12-07T17:49:28;4.90;92.80
58809;DHT22;44579;51.672;7.834;2022-12-07T17:51:56;4.90;92.80
58809;DHT22;44579;51.672;7.834;2022-12-07T17:54:42;4.90;92.80
58809;DHT22;44579;51.672;7.834;2022-12-07T17:57:09;4.90;92.80
58809;DHT22;44579;51.672;7.834;2022-12-07T17:59:36;4.90;92.80